Time;durP1;ratioP1;P1;durP2;ratioP2;P2;SDS_P1;SDS_P2;PMS_P1;PMS_P2;Temp;Humidity;BMP_temperature;BMP_pressure;BME280_temperature;BME280_humidity;BME280_pressure;Samples;Min_cycle;Max_cycle;Signal;HPM_P1;HPM_P2
2023/06/08 00:02:23;;;;;;;1999.90;999.90;;;14.20;99.90;;;;;;6285923;22;20378;-73
2023/06/08 00:04:55;;;;;;;1999.90;999.90;;;14.10;99.90;;;;;;6313423;22;20004;-73
2023/06/08 00:07:21;;;;;;;1999.90;999.90;;;14.10;99.90;;;;;;6313994;22;20008;-73
2023/06/08 00:09:47;;;;;;;1999.90;999.90;;;14.00;99.90;;;;;;6313953;22;20034;-73
2023/06/08 00:12:12;;;;;;;1999.90;999.90;;;14.00;99.90;;;;;;6313662;22;20042;-73
2023/06/08 00:14:39;;;;;;;1999.90;999.90;;;14.00;99.90;;;;;;6313388;22;20531;-73
2023/06/08 00:17:05;;;;;;;1999.90;999.90;;;14.00;99.90;;;;;;6285982;22;20084;-73
2023/06/08 00:19:32;;;;;;;1999.90;999.90;;;14.00;99.90;;;;;;6313892;22;20400;-73
2023/06/08 00:21:59;;;;;;;1999.90;999.90;;;13.90;99.90;;;;;;6313500;22;20010;-73
2023/06/08 00:24:25;;;;;;;1999.90;999.90;;;13.90;99.90;;;;;;6313572;22;20000;-73
2023/06/08 00:26:51;;;;;;;1999.90;999.90;;;13.90;99.90;;;;;;6313825;22;20008;-73
2023/06/08 00:29:17;;;;;;;1999.90;999.90;;;13.90;99.90;;;;;;6313829;22;20034;-73
2023/06/08 00:31:42;;;;;;;1999.90;999.90;;;13.80;99.90;;;;;;6313442;22;20445;-73
2023/06/08 00:34:08;;;;;;;1999.90;999.90;;;13.80;99.90;;;;;;6313612;22;20008;-73
2023/06/08 00:36:33;;;;;;;1999.90;999.90;;;13.70;99.90;;;;;;6313254;22;20037;-73
2023/06/08 00:38:59;;;;;;;1999.90;999.90;;;13.70;99.90;;;;;;6313604;22;20000;-73
2023/06/08 00:41:25;;;;;;;1999.90;999.90;;;13.70;99.90;;;;;;6313353;22;20010;-73
2023/06/08 00:43:50;;;;;;;1999.90;999.90;;;13.70;99.90;;;;;;6315002;22;20015;-73
2023/06/08 00:46:17;;;;;;;1999.90;999.90;;;13.70;99.90;;;;;;6314795;22;20007;-72
2023/06/08 00:48:43;;;;;;;1999.90;999.90;;;13.70;99.90;;;;;;6314790;22;20320;-73
2023/06/08 00:51:10;;;;;;;1999.90;999.90;;;13.70;99.90;;;;;;6314766;22;20470;-73
2023/06/08 00:53:36;;;;;;;1999.90;999.90;;;13.60;99.90;;;;;;6287110;22;20038;-73
2023/06/08 00:56:03;;;;;;;1999.90;999.90;;;13.60;99.90;;;;;;6314527;22;20018;-73
2023/06/08 00:58:29;;;;;;;1999.90;999.90;;;13.60;99.90;;;;;;6315027;22;20075;-73
2023/06/08 01:00:59;;;;;;;1999.90;999.90;;;13.60;99.90;;;;;;6314781;22;20004;-73
2023/06/08 01:03:33;;;;;;;1999.90;999.90;;;13.50;99.90;;;;;;6314938;22;20004;-73
2023/06/08 01:06:02;;;;;;;1999.90;999.90;;;13.50;99.90;;;;;;6314363;22;20098;-73
2023/06/08 01:08:47;;;;;;;1999.90;999.90;;;13.40;99.90;;;;;;6315012;22;20049;-73
2023/06/08 01:11:45;;;;;;;1999.90;999.90;;;13.40;99.90;;;;;;6314609;22;20452;-73
2023/06/08 01:14:43;;;;;;;1999.90;999.90;;;13.30;99.90;;;;;;6314988;22;20070;-73
2023/06/08 01:17:12;;;;;;;1999.90;999.90;;;13.30;99.90;;;;;;6309972;22;20008;-73
2023/06/08 01:19:59;;;;;;;1999.90;999.90;;;13.20;99.90;;;;;;6314810;22;20473;-73
2023/06/08 01:22:32;;;;;;;1999.90;999.90;;;13.20;99.90;;;;;;6313773;22;19996;-73
2023/06/08 01:24:59;;;;;;;1999.90;999.90;;;13.30;99.90;;;;;;6314444;22;20090;-73
2023/06/08 01:27:26;;;;;;;1999.90;999.90;;;13.20;99.90;;;;;;6314965;22;19999;-73
2023/06/08 01:29:52;;;;;;;1999.90;999.90;;;13.20;99.90;;;;;;6314285;22;20011;-73
2023/06/08 01:32:20;;;;;;;1999.90;999.90;;;13.30;99.90;;;;;;6314304;22;20004;-73
2023/06/08 01:34:47;;;;;;;1999.90;999.90;;;13.30;99.90;;;;;;6314259;22;20022;-73
2023/06/08 01:37:26;;;;;;;1999.90;999.90;;;13.20;99.90;;;;;;6314629;22;20007;-73
2023/06/08 01:39:59;;;;;;;1999.90;999.90;;;13.20;99.90;;;;;;6314876;22;20004;-73
2023/06/08 01:42:27;;;;;;;1999.90;999.90;;;13.20;99.90;;;;;;6314487;22;20003;-73
2023/06/08 01:45:00;;;;;;;1999.90;999.90;;;13.10;99.90;;;;;;6314382;22;20008;-73
2023/06/08 01:47:32;;;;;;;1999.90;999.90;;;13.10;99.90;;;;;;6314876;22;20004;-73
2023/06/08 01:49:58;;;;;;;1999.90;999.90;;;13.10;99.90;;;;;;6314783;22;20014;-73
2023/06/08 01:52:24;;;;;;;1999.90;999.90;;;13.00;99.90;;;;;;6314218;22;20007;-73
2023/06/08 01:54:50;;;;;;;1999.90;999.90;;;13.00;99.90;;;;;;6314374;22;20026;-73
2023/06/08 01:57:15;;;;;;;1999.90;999.90;;;12.90;99.90;;;;;;6314584;22;20007;-73
2023/06/08 01:59:41;;;;;;;1999.90;999.90;;;12.90;99.90;;;;;;6314587;22;20007;-73
2023/06/08 02:02:06;;;;;;;1999.90;999.90;;;12.90;99.90;;;;;;6314409;22;20343;-73
2023/06/08 02:04:32;;;;;;;1999.90;999.90;;;12.80;99.90;;;;;;6314341;22;20340;-72
2023/06/08 02:06:57;;;;;;;1999.90;999.90;;;12.90;99.90;;;;;;6286835;22;20087;-73
2023/06/08 02:09:23;;;;;;;1999.90;999.90;;;12.90;99.90;;;;;;6314676;22;20004;-72
2023/06/08 02:11:48;;;;;;;1999.90;999.90;;;12.80;99.90;;;;;;6314249;22;20664;-72
2023/06/08 02:14:14;;;;;;;1999.90;999.90;;;12.80;99.90;;;;;;6314621;22;20045;-73
2023/06/08 02:16:40;;;;;;;1999.90;999.90;;;12.80;99.90;;;;;;6314311;22;20044;-73
2023/06/08 02:19:05;;;;;;;1999.90;999.90;;;12.80;99.90;;;;;;6314604;22;20015;-72
2023/06/08 02:21:32;;;;;;;1999.90;999.90;;;12.80;99.90;;;;;;6314265;22;20343;-72
2023/06/08 02:23:57;;;;;;;1999.90;999.90;;;12.80;99.90;;;;;;6314748;22;20086;-74
2023/06/08 02:26:23;;;;;;;1999.90;999.90;;;12.80;99.90;;;;;;6314140;22;20376;-73
2023/06/08 02:28:48;;;;;;;1999.90;999.90;;;12.70;99.90;;;;;;6314568;22;20424;-73
2023/06/08 02:31:14;;;;;;;1999.90;999.90;;;12.70;99.90;;;;;;6314208;22;20372;-73
2023/06/08 02:33:40;;;;;;;1999.90;999.90;;;12.70;99.90;;;;;;6286950;22;20007;-72
2023/06/08 02:36:09;;;;;;;1999.90;999.90;;;12.70;99.90;;;;;;6314293;22;20007;-73
2023/06/08 02:38:34;;;;;;;1999.90;999.90;;;12.80;99.90;;;;;;6286754;22;20081;-72
2023/06/08 02:41:00;;;;;;;1999.90;999.90;;;12.70;99.90;;;;;;6314148;22;20035;-73
2023/06/08 02:43:25;;;;;;;1999.90;999.90;;;12.70;99.90;;;;;;6314395;22;20003;-72
2023/06/08 02:45:51;;;;;;;1999.90;999.90;;;12.60;99.90;;;;;;6313865;22;20030;-73
2023/06/08 02:48:16;;;;;;;1999.90;999.90;;;12.60;99.90;;;;;;6314504;22;20003;-73
2023/06/08 02:50:43;;;;;;;1999.90;999.90;;;12.60;99.90;;;;;;6314447;22;20008;-73
2023/06/08 02:53:08;;;;;;;1999.90;999.90;;;12.50;99.90;;;;;;6314078;22;20003;-73
2023/06/08 02:55:36;;;;;;;1999.90;999.90;;;12.50;99.90;;;;;;6313873;22;20012;-72
2023/06/08 02:58:03;;;;;;;1999.90;999.90;;;12.50;99.90;;;;;;6314461;22;20440;-72
2023/06/08 03:00:30;;;;;;;1999.90;999.90;;;12.50;99.90;;;;;;6286661;22;20015;-73
2023/06/08 03:02:59;;;;;;;1999.90;999.90;;;12.50;99.90;;;;;;6286217;22;20011;-73
2023/06/08 03:05:24;;;;;;;1999.90;999.90;;;12.50;99.90;;;;;;6313404;22;20353;-73
2023/06/08 03:07:52;;;;;;;1999.90;999.90;;;12.50;99.90;;;;;;6314083;22;20867;-72
2023/06/08 03:10:18;;;;;;;1999.90;999.90;;;12.50;99.90;;;;;;6314352;22;20069;-73
2023/06/08 03:12:44;;;;;;;1999.90;999.90;;;12.50;99.90;;;;;;6313856;22;20008;-73
2023/06/08 03:15:10;;;;;;;1999.90;999.90;;;12.50;99.90;;;;;;6313991;22;20119;-72
2023/06/08 03:17:36;;;;;;;1999.90;999.90;;;12.50;99.90;;;;;;6314349;22;20054;-72
2023/06/08 03:20:03;;;;;;;1999.90;999.90;;;12.50;99.90;;;;;;6314505;22;20359;-72
2023/06/08 03:22:29;;;;;;;1999.90;999.90;;;12.40;99.90;;;;;;6313970;22;20086;-73
2023/06/08 03:24:58;;;;;;;1999.90;999.90;;;12.50;99.90;;;;;;6314117;22;20025;-73
2023/06/08 03:27:23;;;;;;;1999.90;999.90;;;12.50;99.90;;;;;;6286485;22;20083;-73
2023/06/08 03:29:49;;;;;;;1999.90;999.90;;;12.50;99.90;;;;;;6286704;22;20109;-72
2023/06/08 03:32:15;;;;;;;1999.90;999.90;;;12.50;99.90;;;;;;6313810;22;20008;-73
2023/06/08 03:34:40;;;;;;;1999.90;999.90;;;12.50;99.90;;;;;;6313959;22;20000;-73
2023/06/08 03:37:06;;;;;;;1999.90;999.90;;;12.50;99.90;;;;;;6313862;22;20035;-72
2023/06/08 03:39:31;;;;;;;1999.90;999.90;;;12.60;99.90;;;;;;6314141;22;20011;-73
2023/06/08 03:41:57;;;;;;;1999.90;999.90;;;12.60;99.90;;;;;;6286189;22;20019;-72
2023/06/08 03:44:22;;;;;;;1999.90;999.90;;;12.60;99.90;;;;;;6314121;22;20110;-73
2023/06/08 03:46:48;;;;;;;1999.90;999.90;;;12.60;99.90;;;;;;6286224;22;20012;-73
2023/06/08 03:49:14;;;;;;;1999.90;999.90;;;12.60;99.90;;;;;;6314223;22;20007;-73
2023/06/08 03:51:40;;;;;;;1999.90;999.90;;;12.60;99.90;;;;;;6313818;22;20331;-72
2023/06/08 03:54:05;;;;;;;1999.90;999.90;;;12.60;99.90;;;;;;6286656;22;20348;-73
2023/06/08 03:56:31;;;;;;;1999.90;999.90;;;12.60;99.90;;;;;;6313757;22;20011;-73
2023/06/08 03:58:56;;;;;;;1999.90;999.90;;;12.70;99.90;;;;;;6313937;22;20011;-73
2023/06/08 04:01:22;;;;;;;1999.90;999.90;;;12.70;99.90;;;;;;6313715;22;20073;-72
2023/06/08 04:03:48;;;;;;;1999.90;999.90;;;12.70;99.90;;;;;;6314026;22;19999;-73
2023/06/08 04:06:16;;;;;;;1999.90;999.90;;;12.70;99.90;;;;;;6313110;22;20038;-72
2023/06/08 04:08:42;;;;;;;1999.90;999.90;;;12.80;99.90;;;;;;6314040;22;20447;-72
2023/06/08 04:11:08;;;;;;;1999.90;999.90;;;12.70;99.90;;;;;;6313456;22;20008;-73
2023/06/08 04:13:36;;;;;;;1999.90;999.90;;;12.70;99.90;;;;;;6313822;22;20016;-73
2023/06/08 04:16:03;;;;;;;1999.90;999.90;;;12.80;99.90;;;;;;6313982;22;20077;-72
2023/06/08 04:18:29;;;;;;;1999.90;999.90;;;12.90;99.90;;;;;;6287462;22;20008;-73
2023/06/08 04:20:55;;;;;;;1999.90;999.90;;;12.90;99.90;;;;;;6287245;22;20012;-73
2023/06/08 04:23:20;;;;;;;1999.90;999.90;;;12.90;99.90;;;;;;6287563;22;20003;-73
2023/06/08 04:25:46;;;;;;;1999.90;999.90;;;13.00;99.90;;;;;;6314959;22;20010;-73
2023/06/08 04:28:12;;;;;;;1999.90;999.90;;;13.00;99.90;;;;;;6315096;22;20373;-73
2023/06/08 04:30:37;;;;;;;1999.90;999.90;;;13.10;99.90;;;;;;6287420;22;20351;-73
2023/06/08 04:33:03;;;;;;;1999.90;999.90;;;13.20;99.90;;;;;;6314774;22;20126;-73
2023/06/08 04:35:28;;;;;;;1999.90;999.90;;;13.30;99.90;;;;;;6287238;22;20781;-73
2023/06/08 04:37:54;;;;;;;1999.90;999.90;;;13.30;99.90;;;;;;6315299;22;20458;-72
2023/06/08 04:40:20;;;;;;;1999.90;999.90;;;13.40;99.90;;;;;;6315127;22;20530;-72
2023/06/08 04:42:46;;;;;;;1999.90;999.90;;;13.50;99.90;;;;;;6314708;22;20004;-72
2023/06/08 04:45:12;;;;;;;1999.90;999.90;;;13.50;99.90;;;;;;6287433;22;20007;-74
2023/06/08 04:47:40;;;;;;;1999.90;999.90;;;13.50;99.90;;;;;;6315049;22;20036;-72
2023/06/08 04:50:10;;;;;;;1999.90;999.90;;;13.60;99.90;;;;;;6339386;22;20022;-73
2023/06/08 04:52:40;;;;;;;1999.90;999.90;;;13.60;99.90;;;;;;6314720;22;20447;-72
2023/06/08 04:55:06;;;;;;;1999.90;999.90;;;13.70;99.90;;;;;;6314835;22;20011;-72
2023/06/08 04:57:32;;;;;;;1999.90;999.90;;;13.80;99.90;;;;;;6315095;22;20022;-73
2023/06/08 04:59:58;;;;;;;1999.90;999.90;;;13.90;99.90;;;;;;6287334;22;20481;-72
2023/06/08 05:02:25;;;;;;;1999.90;999.90;;;13.90;99.90;;;;;;6287021;22;20090;-73
2023/06/08 05:04:50;;;;;;;1999.90;999.90;;;14.00;99.90;;;;;;6287277;22;20075;-73
2023/06/08 05:07:16;;;;;;;1999.90;999.90;;;14.10;99.90;;;;;;6287417;22;20482;-73
2023/06/08 05:09:41;;;;;;;1999.90;999.90;;;14.20;99.90;;;;;;6314908;22;20012;-73
2023/06/08 05:12:07;;;;;;;1999.90;999.90;;;14.30;99.90;;;;;;6314453;22;20015;-74
2023/06/08 05:14:33;;;;;;;1999.90;999.90;;;14.40;99.90;;;;;;6314455;22;20050;-73
2023/06/08 05:16:58;;;;;;;1999.90;999.90;;;14.60;99.90;;;;;;6287123;22;20012;-73
2023/06/08 05:19:24;;;;;;;1999.90;999.90;;;14.70;99.90;;;;;;6314962;22;20387;-73
2023/06/08 05:21:49;;;;;;;1999.90;999.90;;;14.80;99.90;;;;;;6314538;22;20008;-73
2023/06/08 05:24:15;;;;;;;1999.90;999.90;;;14.90;99.90;;;;;;6314867;22;20415;-73
2023/06/08 05:26:41;;;;;;;1999.90;999.90;;;15.00;99.90;;;;;;6314529;22;20022;-73
2023/06/08 05:29:07;;;;;;;1999.90;999.90;;;15.20;99.90;;;;;;6314550;22;20031;-73
2023/06/08 05:31:33;;;;;;;1999.90;999.90;;;15.30;99.90;;;;;;6314407;22;20042;-73
2023/06/08 05:33:58;;;;;;;1999.90;999.90;;;15.40;99.90;;;;;;6314920;22;20000;-73
2023/06/08 05:36:24;;;;;;;1999.90;999.90;;;15.50;99.90;;;;;;6286936;22;20015;-74
2023/06/08 05:38:50;;;;;;;1999.90;999.90;;;15.60;99.90;;;;;;6314892;22;20074;-74
2023/06/08 05:41:15;;;;;;;1999.90;999.90;;;15.70;99.90;;;;;;6314588;22;20094;-74
2023/06/08 05:43:42;;;;;;;1999.90;999.90;;;15.80;99.90;;;;;;6315045;22;20058;-75
2023/06/08 05:46:07;;;;;;;1999.90;999.90;;;15.80;99.90;;;;;;6314431;22;20015;-74
2023/06/08 05:48:33;;;;;;;1999.90;999.90;;;16.00;99.90;;;;;;6314933;22;20455;-74
2023/06/08 05:50:58;;;;;;;1999.90;999.90;;;16.00;99.90;;;;;;6314396;22;20066;-74
2023/06/08 05:53:25;;;;;;;1999.90;999.90;;;16.10;99.90;;;;;;6314683;22;20440;-75
2023/06/08 05:55:50;;;;;;;1999.90;999.90;;;16.20;99.90;;;;;;6314485;22;20008;-74
2023/06/08 05:58:17;;;;;;;1999.90;999.90;;;16.30;99.90;;;;;;6314623;22;20351;-74
2023/06/08 06:00:43;;;;;;;1999.90;999.90;;;16.40;99.90;;;;;;6286840;22;20008;-74
2023/06/08 06:03:09;;;;;;;1999.90;999.90;;;16.50;99.90;;;;;;6314569;22;20008;-75
2023/06/08 06:05:34;;;;;;;1999.90;999.90;;;16.60;99.90;;;;;;6314344;22;20082;-74
2023/06/08 06:08:00;;;;;;;1999.90;999.90;;;16.80;99.90;;;;;;6314903;22;20479;-77
2023/06/08 06:10:25;;;;;;;1999.90;999.90;;;16.90;99.90;;;;;;6315055;22;20012;-75
2023/06/08 06:12:51;;;;;;;1999.90;999.90;;;17.00;99.90;;;;;;6314688;22;20432;-75
2023/06/08 06:15:16;;;;;;;1999.90;999.90;;;17.00;99.90;;;;;;6314505;22;20012;-76
2023/06/08 06:17:42;;;;;;;1999.90;999.90;;;17.10;99.90;;;;;;6315206;22;20007;-75
2023/06/08 06:20:08;;;;;;;1999.90;999.90;;;17.10;99.90;;;;;;6287430;22;20058;-74
2023/06/08 06:22:34;;;;;;;1999.90;999.90;;;17.20;99.90;;;;;;6289804;22;20031;-78
2023/06/08 06:24:59;;;;;;;1999.90;999.90;;;17.20;99.90;;;;;;6286851;22;20035;-75
2023/06/08 06:27:25;;;;;;;1999.90;999.90;;;17.10;99.90;;;;;;6287188;22;20437;-76
2023/06/08 06:29:50;;;;;;;1999.90;999.90;;;17.10;99.90;;;;;;6314716;22;20014;-75
2023/06/08 06:32:16;;;;;;;1999.90;999.90;;;17.10;99.90;;;;;;6337845;22;20011;-76
2023/06/08 06:34:45;;;;;;;1999.90;999.90;;;17.20;99.90;;;;;;6314162;22;20011;-75
2023/06/08 06:37:11;;;;;;;1999.90;999.90;;;17.30;99.90;;;;;;6315430;22;20043;-75
2023/06/08 06:39:36;;;;;;;1999.90;999.90;;;17.40;99.90;;;;;;6316047;22;20000;-76
2023/06/08 06:42:02;;;;;;;1999.90;999.90;;;17.50;99.90;;;;;;6291300;22;20358;-76
2023/06/08 06:44:28;;;;;;;1999.90;999.90;;;17.70;99.90;;;;;;6317732;22;20053;-77
2023/06/08 06:46:54;;;;;;;1999.90;999.90;;;17.90;99.90;;;;;;6316864;22;20444;-74
2023/06/08 06:49:19;;;;;;;1999.90;999.90;;;17.90;99.90;;;;;;6316789;22;20007;-77
2023/06/08 06:51:45;;;;;;;1999.90;999.90;;;18.00;99.90;;;;;;6317445;22;20035;-77
2023/06/08 06:54:11;;;;;;;1999.90;999.90;;;18.20;99.90;;;;;;6288900;22;20110;-76
2023/06/08 06:56:36;;;;;;;1999.90;999.90;;;18.20;99.90;;;;;;6315864;22;20015;-76
2023/06/08 06:59:02;;;;;;;1999.90;999.90;;;18.40;99.90;;;;;;6316178;22;20054;-75
2023/06/08 07:01:30;;;;;;;1999.90;999.90;;;18.60;99.90;;;;;;6316055;22;20011;-74
2023/06/08 07:03:56;;;;;;;1999.90;999.90;;;18.70;99.90;;;;;;6316099;22;20491;-76
2023/06/08 07:06:24;;;;;;;1999.90;999.90;;;18.90;99.90;;;;;;6315409;22;20055;-74
2023/06/08 07:08:50;;;;;;;1999.90;999.90;;;19.30;99.90;;;;;;6313738;22;20091;-73
2023/06/08 07:11:15;;;;;;;1999.90;999.90;;;19.40;99.90;;;;;;6314181;22;20004;-75
2023/06/08 07:13:41;;;;;;;1999.90;999.90;;;19.60;99.90;;;;;;6314420;22;20019;-75
2023/06/08 07:16:06;;;;;;;1999.90;999.90;;;19.80;99.90;;;;;;6313404;22;20016;-74
2023/06/08 07:18:32;;;;;;;1999.90;999.90;;;19.90;99.90;;;;;;6313957;22;20007;-73
2023/06/08 07:20:57;;;;;;;1999.90;999.90;;;20.00;99.90;;;;;;6313946;22;20010;-75
2023/06/08 07:23:23;;;;;;;1999.90;999.90;;;20.10;99.90;;;;;;6313407;22;20004;-77
2023/06/08 07:25:49;;;;;;;1999.90;999.90;;;20.30;99.90;;;;;;6285508;22;20110;-73
2023/06/08 07:28:16;;;;;;;1999.90;999.90;;;20.60;99.90;;;;;;6313537;22;20485;-73
2023/06/08 07:30:42;;;;;;;1999.90;999.90;;;20.80;99.90;;;;;;6314063;22;20457;-74
2023/06/08 07:33:07;;;;;;;1999.90;999.90;;;21.00;99.90;;;;;;6286309;22;20004;-75
2023/06/08 07:35:33;;;;;;;1999.90;999.90;;;21.20;99.90;;;;;;6313746;22;20439;-75
2023/06/08 07:37:59;;;;;;;1999.90;999.90;;;21.30;99.90;;;;;;6313767;22;20075;-73
2023/06/08 07:40:24;;;;;;;1999.90;999.90;;;21.40;99.90;;;;;;6313359;22;20035;-74
2023/06/08 07:42:51;;;;;;;1999.90;999.90;;;21.50;99.90;;;;;;6285526;22;20011;-75
2023/06/08 07:45:17;;;;;;;1999.90;999.90;;;21.70;99.90;;;;;;6337629;22;20016;-73
2023/06/08 07:47:42;;;;;;;1999.90;999.90;;;21.80;99.90;;;;;;6313907;22;20015;-72
2023/06/08 07:50:10;;;;;;;1999.90;999.90;;;21.90;99.90;;;;;;6313410;22;20007;-73
2023/06/08 07:52:36;;;;;;;1999.90;999.90;;;22.10;99.90;;;;;;6313399;22;20083;-73
2023/06/08 07:55:01;;;;;;;1999.90;999.90;;;22.30;99.90;;;;;;6286174;22;20420;-74
2023/06/08 07:57:27;;;;;;;1999.90;999.90;;;22.30;99.90;;;;;;6286170;22;20478;-73
2023/06/08 07:59:53;;;;;;;1999.90;999.90;;;22.40;99.90;;;;;;6314028;22;20034;-73
2023/06/08 08:02:19;;;;;;;1999.90;999.90;;;22.70;99.90;;;;;;6313836;22;20451;-74
2023/06/08 08:04:45;;;;;;;1999.90;999.90;;;22.60;99.90;;;;;;6313904;22;20387;-74
2023/06/08 08:07:10;;;;;;;1999.90;999.90;;;22.60;99.90;;;;;;6312450;22;20043;-74
2023/06/08 08:09:36;;;;;;;1999.90;999.90;;;22.90;99.90;;;;;;6311867;22;20085;-74
2023/06/08 08:12:01;;;;;;;1999.90;999.90;;;23.00;99.90;;;;;;6313926;22;20088;-75
2023/06/08 08:14:27;;;;;;;1999.90;999.90;;;23.00;99.90;;;;;;6313707;22;20019;-73
2023/06/08 08:16:53;;;;;;;1999.90;999.90;;;23.30;99.90;;;;;;6312679;22;20019;-73
2023/06/08 08:19:19;;;;;;;1999.90;999.90;;;23.50;99.90;;;;;;6313826;22;20075;-75
2023/06/08 08:21:44;;;;;;;1999.90;999.90;;;23.70;99.90;;;;;;6313206;22;20031;-73
2023/06/08 08:24:10;;;;;;;1999.90;999.90;;;23.70;99.90;;;;;;6313720;22;20004;-74
2023/06/08 08:26:43;;;;;;;1999.90;999.90;;;23.80;99.90;;;;;;6313660;22;20004;-73
2023/06/08 08:29:09;;;;;;;1999.90;999.90;;;24.00;99.70;;;;;;6313895;22;20007;-74
2023/06/08 08:31:34;;;;;;;1999.90;999.90;;;24.20;99.20;;;;;;6313573;22;20022;-74
2023/06/08 08:34:00;;;;;;;1999.90;999.90;;;24.50;98.90;;;;;;6313627;22;20035;-75
2023/06/08 08:36:25;;;;;;;1999.90;999.90;;;24.50;98.00;;;;;;6311507;22;20016;-75
2023/06/08 08:38:51;;;;;;;1999.90;999.90;;;24.50;98.40;;;;;;6311888;22;19999;-75
2023/06/08 08:41:20;;;;;;;1999.90;999.90;;;24.40;98.70;;;;;;6313442;22;20376;-74
2023/06/08 08:43:52;;;;;;;1999.90;999.90;;;24.50;99.70;;;;;;6313473;22;20004;-75
2023/06/08 08:46:22;;;;;;;1999.90;999.90;;;24.50;98.00;;;;;;6313261;22;20004;-75
2023/06/08 08:48:53;;;;;;;1999.90;999.90;;;24.80;98.30;;;;;;6313324;22;20000;-75
2023/06/08 08:51:19;;;;;;;1999.90;999.90;;;25.00;97.70;;;;;;6285396;22;20012;-75
2023/06/08 08:53:50;;;;;;;1999.90;999.90;;;25.10;96.80;;;;;;6312526;22;20015;-73
2023/06/08 08:56:25;;;;;;;1999.90;999.90;;;25.20;97.40;;;;;;6284196;22;20014;-74
2023/06/08 08:58:51;;;;;;;1999.90;999.90;;;25.20;96.70;;;;;;6313557;22;20338;-75
2023/06/08 09:01:18;;;;;;;1999.90;999.90;;;25.50;95.90;;;;;;6313347;22;20008;-74
2023/06/08 09:03:44;;;;;;;1999.90;999.90;;;25.30;96.30;;;;;;6314428;22;20004;-76
2023/06/08 09:06:16;;;;;;;1999.90;999.90;;;25.30;96.60;;;;;;6287313;22;20019;-74
2023/06/08 09:08:41;;;;;;;1999.90;999.90;;;25.40;96.40;;;;;;6314822;22;20006;-74
2023/06/08 09:11:10;;;;;;;1999.90;999.90;;;25.50;96.60;;;;;;6314691;22;20007;-75
2023/06/08 09:13:38;;;;;;;1999.90;999.90;;;25.70;96.50;;;;;;6314843;22;20087;-74
2023/06/08 09:16:19;;;;;;;1999.90;999.90;;;25.70;95.90;;;;;;6314554;22;20008;-74
2023/06/08 09:18:46;;;;;;;1999.90;999.90;;;25.80;96.50;;;;;;6287333;22;20062;-75
2023/06/08 09:21:23;;;;;;;1999.90;999.90;;;25.70;95.10;;;;;;6314278;22;20016;-74
2023/06/08 09:24:11;;;;;;;1999.90;999.90;;;25.90;95.30;;;;;;6314601;22;20494;-75
2023/06/08 09:26:45;;;;;;;1999.90;999.90;;;25.90;94.90;;;;;;6314835;22;20059;-74
2023/06/08 09:29:34;;;;;;;1999.90;999.90;;;26.10;95.00;;;;;;6315110;22;20000;-75
2023/06/08 09:32:01;;;;;;;1999.90;999.90;;;26.20;95.60;;;;;;6286852;22;20035;-75
2023/06/08 09:34:29;;;;;;;1999.90;999.90;;;26.60;94.30;;;;;;6314870;22;20010;-76
2023/06/08 09:37:08;;;;;;;1999.90;999.90;;;26.70;93.50;;;;;;6314725;22;20470;-76
2023/06/08 09:39:44;;;;;;;1999.90;999.90;;;26.80;93.10;;;;;;6314976;22;20077;-75
2023/06/08 09:42:10;;;;;;;1999.90;999.90;;;26.90;91.20;;;;;;6314629;22;20459;-74
2023/06/08 09:44:37;;;;;;;1999.90;999.90;;;26.90;91.60;;;;;;6314945;22;20003;-74
2023/06/08 09:47:25;;;;;;;1999.90;999.90;;;26.80;90.30;;;;;;6314552;22;20351;-74
2023/06/08 09:49:52;;;;;;;1999.90;999.90;;;27.00;90.90;;;;;;6314695;22;20466;-74
2023/06/08 09:52:20;;;;;;;1999.90;999.90;;;27.00;90.70;;;;;;6314569;22;20008;-74
2023/06/08 09:54:46;;;;;;;1999.90;999.90;;;27.10;91.20;;;;;;6314783;22;20008;-74
2023/06/08 09:57:16;;;;;;;1999.90;999.90;;;27.40;90.70;;;;;;6313873;22;20478;-74
2023/06/08 10:00:17;;;;;;;1999.90;999.90;;;27.50;88.80;;;;;;6314528;22;20000;-74
2023/06/08 10:03:06;;;;;;;1999.90;999.90;;;27.40;85.10;;;;;;6314345;22;20019;-74
2023/06/08 10:05:36;;;;;;;1999.90;999.90;;;27.10;86.00;;;;;;6313640;22;20023;-74
2023/06/08 10:08:03;;;;;;;1999.90;999.90;;;26.40;87.80;;;;;;6286959;22;20008;-75
2023/06/08 10:10:34;;;;;;;1999.90;999.90;;;26.00;90.20;;;;;;6314542;22;20091;-75
2023/06/08 10:13:00;;;;;;;1999.90;999.90;;;25.40;90.30;;;;;;6287336;22;20067;-74
2023/06/08 10:15:27;;;;;;;1999.90;999.90;;;25.20;90.90;;;;;;6287280;22;20039;-75
2023/06/08 10:17:55;;;;;;;1999.90;999.90;;;25.00;90.90;;;;;;6287335;22;20008;-74
2023/06/08 10:20:21;;;;;;;1999.90;999.90;;;24.80;90.90;;;;;;6287457;22;20011;-74
2023/06/08 10:22:47;;;;;;;1999.90;999.90;;;24.70;92.30;;;;;;6314592;22;20053;-74
2023/06/08 10:25:16;;;;;;;1999.90;999.90;;;24.60;92.00;;;;;;6314445;22;20062;-74
2023/06/08 10:27:49;;;;;;;1999.90;999.90;;;24.50;91.90;;;;;;6314648;22;20418;-74
2023/06/08 10:30:40;;;;;;;1999.90;999.90;;;24.60;92.70;;;;;;6314851;22;20008;-75
2023/06/08 10:33:21;;;;;;;1999.90;999.90;;;24.70;92.60;;;;;;6314202;22;20004;-75
2023/06/08 10:36:09;;;;;;;1999.90;999.90;;;24.90;92.20;;;;;;6314303;22;20101;-75
2023/06/08 10:38:38;;;;;;;1999.90;999.90;;;25.20;92.00;;;;;;6286629;22;20058;-77
2023/06/08 10:41:04;;;;;;;1999.90;999.90;;;25.30;91.80;;;;;;6313618;22;20003;-76
2023/06/08 10:43:29;;;;;;;1999.90;999.90;;;25.40;91.40;;;;;;6313898;22;20057;-75
2023/06/08 10:45:57;;;;;;;1999.90;999.90;;;25.30;91.90;;;;;;6312308;22;20612;-74
2023/06/08 10:48:22;;;;;;;1999.90;999.90;;;25.40;90.40;;;;;;6313463;22;20079;-74
2023/06/08 10:50:50;;;;;;;1999.90;999.90;;;25.40;90.40;;;;;;6286121;22;20083;-73
2023/06/08 10:53:19;;;;;;;1999.90;999.90;;;25.60;90.70;;;;;;6313672;22;20006;-74
2023/06/08 10:55:49;;;;;;;1999.90;999.90;;;25.70;90.00;;;;;;6313647;22;20046;-75
2023/06/08 10:58:19;;;;;;;1999.90;999.90;;;25.80;91.40;;;;;;6285952;22;20004;-76
2023/06/08 11:01:06;;;;;;;1999.90;999.90;;;25.70;90.70;;;;;;6313687;22;20004;-74
2023/06/08 11:03:46;;;;;;;1999.90;999.90;;;26.00;90.70;;;;;;6313481;22;20003;-72
2023/06/08 11:06:15;;;;;;;1999.90;999.90;;;26.20;88.50;;;;;;6312596;22;20451;-73
2023/06/08 11:08:41;;;;;;;1999.90;999.90;;;26.50;89.10;;;;;;6313250;22;20004;-74
2023/06/08 11:11:10;;;;;;;1999.90;999.90;;;26.80;88.40;;;;;;6285434;22;20015;-75
2023/06/08 11:13:36;;;;;;;1999.90;999.90;;;26.80;88.10;;;;;;6313519;22;20007;-75
2023/06/08 11:16:01;;;;;;;1999.90;999.90;;;27.00;88.70;;;;;;6313363;22;20015;-75
2023/06/08 11:18:29;;;;;;;1999.90;999.90;;;27.00;89.10;;;;;;6285437;22;20027;-73
2023/06/08 11:20:58;;;;;;;1999.90;999.90;;;27.20;88.70;;;;;;6285120;22;20007;-75
2023/06/08 11:23:24;;;;;;;1999.90;999.90;;;27.20;83.90;;;;;;6313481;22;20004;-75
2023/06/08 11:25:51;;;;;;;1999.90;999.90;;;27.10;84.50;;;;;;6313132;22;20008;-75
2023/06/08 11:28:16;;;;;;;1999.90;999.90;;;27.30;82.80;;;;;;6285808;22;20324;-76
2023/06/08 11:30:42;;;;;;;1999.90;999.90;;;27.60;83.30;;;;;;6312009;22;20077;-76
2023/06/08 11:33:09;;;;;;;1999.90;999.90;;;27.70;80.80;;;;;;6313326;22;20011;-74
2023/06/08 11:35:35;;;;;;;1999.90;999.90;;;28.00;82.90;;;;;;6313843;22;20022;-74
2023/06/08 11:38:01;;;;;;;1999.90;999.90;;;28.70;81.20;;;;;;6313963;22;20074;-74
2023/06/08 11:40:29;;;;;;;1999.90;999.90;;;29.00;78.30;;;;;;6314034;22;20098;-74
2023/06/08 11:42:56;;;;;;;1999.90;999.90;;;29.20;79.00;;;;;;6285726;22;20003;-74
2023/06/08 11:45:23;;;;;;;1999.90;999.90;;;29.60;73.70;;;;;;6313845;22;20015;-78
2023/06/08 11:47:52;;;;;;;1999.90;999.90;;;29.50;70.60;;;;;;6286033;22;20003;-75
2023/06/08 11:50:19;;;;;;;1999.90;999.90;;;29.40;68.50;;;;;;6313869;22;20435;-74
2023/06/08 11:52:46;;;;;;;1999.90;999.90;;;29.30;68.40;;;;;;6313604;22;19996;-75
2023/06/08 11:55:16;;;;;;;1999.90;999.90;;;29.70;71.70;;;;;;6286241;22;20038;-76
2023/06/08 11:58:01;;;;;;;1999.90;999.90;;;30.00;67.70;;;;;;6313024;22;20521;-78
2023/06/08 12:00:28;;;;;;;1999.90;999.90;;;30.10;68.10;;;;;;6314212;22;20000;-79
2023/06/08 12:02:56;;;;;;;1999.90;999.90;;;30.40;66.40;;;;;;6314465;22;20451;-78